Time;durP1;ratioP1;P1;durP2;ratioP2;P2;SDS_P1;SDS_P2;PMS_P1;PMS_P2;Temp;Humidity;BMP_temperature;BMP_pressure;BME280_temperature;BME280_humidity;BME280_pressure;Samples;Min_cycle;Max_cycle;Signal;HPM_P1;HPM_P2
2022/10/24 04:00:18;;;;;;;4.88;2.30;;;;;;;;;;6004270;23;20375;-87
2022/10/24 04:02:49;;;;;;;6.78;2.80;;;;;;;;;;5138986;23;20526;-83
2022/10/24 04:05:15;;;;;;;6.40;2.40;;;;;;;;;;5044026;28;20400;-82
2022/10/24 04:07:41;;;;;;;6.28;2.50;;;;;;;;;;5039706;28;20472;-82
2022/10/24 04:10:07;;;;;;;6.43;2.60;;;;;;;;;;5047400;28;20491;-82
2022/10/24 04:12:33;;;;;;;5.97;2.65;;;;;;;;;;5031905;28;20387;-82
2022/10/24 04:14:59;;;;;;;6.68;3.00;;;;;;;;;;5033021;28;20740;-82
2022/10/24 04:17:25;;;;;;;4.00;2.08;;;;;;;;;;5030212;28;20800;-82
2022/10/24 04:19:51;;;;;;;4.65;2.50;;;;;;;;;;5031471;28;20652;-81
2022/10/24 04:22:17;;;;;;;4.63;2.20;;;;;;;;;;5033019;28;20391;-81
2022/10/24 04:24:43;;;;;;;8.13;2.95;;;;;;;;;;5032815;28;20383;-81
2022/10/24 04:27:09;;;;;;;6.18;3.15;;;;;;;;;;5032787;28;20441;-82
2022/10/24 04:29:35;;;;;;;7.22;3.47;;;;;;;;;;5032551;28;20443;-82
2022/10/24 04:32:06;;;;;;;3.83;2.42;;;;;;;;;;5032761;28;20387;-82
2022/10/24 04:34:36;;;;;;;7.32;2.70;;;;;;;;;;5032751;28;20844;-82
2022/10/24 04:37:03;;;;;;;5.57;2.63;;;;;;;;;;5032630;28;20387;-82
2022/10/24 04:39:29;;;;;;;5.05;2.50;;;;;;;;;;5032426;28;20398;-82
2022/10/24 04:41:55;;;;;;;4.97;2.30;;;;;;;;;;5032570;28;20517;-82
2022/10/24 04:44:21;;;;;;;7.30;2.70;;;;;;;;;;5032762;28;20462;-81
2022/10/24 04:46:49;;;;;;;4.93;2.80;;;;;;;;;;5029378;28;20393;-82
2022/10/24 04:49:15;;;;;;;5.88;2.42;;;;;;;;;;5032267;28;20521;-82
2022/10/24 04:51:41;;;;;;;4.05;2.50;;;;;;;;;;5031437;28;20466;-82
2022/10/24 04:54:10;;;;;;;7.53;2.72;;;;;;;;;;5029165;28;20802;-82
2022/10/24 04:56:36;;;;;;;3.28;1.90;;;;;;;;;;5030634;28;20394;-82
2022/10/24 04:59:09;;;;;;;6.03;2.53;;;;;;;;;;5030089;28;20387;-82
2022/10/24 05:01:35;;;;;;;5.18;2.67;;;;;;;;;;5029892;28;20445;-82
2022/10/24 05:04:01;;;;;;;6.10;3.20;;;;;;;;;;5030261;28;20461;-82
2022/10/24 05:06:27;;;;;;;7.63;4.93;;;;;;;;;;5030046;28;20403;-82
2022/10/24 05:08:53;;;;;;;7.53;4.05;;;;;;;;;;5030210;28;20387;-82
2022/10/24 05:11:22;;;;;;;6.47;4.27;;;;;;;;;;5027331;28;20411;-82
2022/10/24 05:13:50;;;;;;;9.45;5.22;;;;;;;;;;5025087;28;20402;-82
2022/10/24 05:16:19;;;;;;;8.20;5.55;;;;;;;;;;5028927;28;20403;-82
2022/10/24 05:18:47;;;;;;;6.77;4.07;;;;;;;;;;5029668;28;20745;-83
2022/10/24 05:21:13;;;;;;;4.65;2.00;;;;;;;;;;5030189;28;21259;-82
2022/10/24 05:23:39;;;;;;;3.83;1.80;;;;;;;;;;5030421;28;20415;-82
2022/10/24 05:26:08;;;;;;;5.73;2.67;;;;;;;;;;5030681;28;20740;-82
2022/10/24 05:28:34;;;;;;;6.05;3.42;;;;;;;;;;5032374;28;20733;-83
2022/10/24 05:31:00;;;;;;;4.60;2.50;;;;;;;;;;5031496;28;20415;-83
2022/10/24 05:33:29;;;;;;;6.03;3.03;;;;;;;;;;5031919;28;20387;-83
2022/10/24 05:35:57;;;;;;;4.77;3.07;;;;;;;;;;5029655;28;20375;-83
2022/10/24 05:38:26;;;;;;;5.03;2.90;;;;;;;;;;5030990;28;20389;-83
2022/10/24 05:40:52;;;;;;;4.68;2.85;;;;;;;;;;5031986;28;20421;-83
2022/10/24 05:43:21;;;;;;;6.97;3.40;;;;;;;;;;5031600;28;20387;-83
2022/10/24 05:45:48;;;;;;;5.22;2.80;;;;;;;;;;5031989;28;20506;-83
2022/10/24 05:48:17;;;;;;;4.30;2.72;;;;;;;;;;5031712;28;20387;-82
2022/10/24 05:50:43;;;;;;;3.45;2.30;;;;;;;;;;5031825;28;20486;-82
2022/10/24 05:53:09;;;;;;;4.80;2.70;;;;;;;;;;5031627;28;20556;-82
2022/10/24 05:55:36;;;;;;;3.45;2.17;;;;;;;;;;5031716;28;20856;-83
2022/10/24 05:58:08;;;;;;;6.22;2.70;;;;;;;;;;5032024;28;20736;-82
2022/10/24 06:00:39;;;;;;;5.63;2.70;;;;;;;;;;5030467;28;20395;-82
2022/10/24 06:03:05;;;;;;;4.72;2.65;;;;;;;;;;5033285;28;20415;-81
2022/10/24 06:05:34;;;;;;;4.53;2.80;;;;;;;;;;5035720;28;20995;-82
2022/10/24 06:08:00;;;;;;;5.55;2.60;;;;;;;;;;5034823;28;20383;-82
2022/10/24 06:10:26;;;;;;;4.38;3.10;;;;;;;;;;5034817;28;20482;-81
2022/10/24 06:12:52;;;;;;;6.05;3.38;;;;;;;;;;5034919;28;20406;-82
2022/10/24 06:15:18;;;;;;;3.80;3.17;;;;;;;;;;5034830;28;20736;-82
2022/10/24 06:17:44;;;;;;;3.92;2.83;;;;;;;;;;5034776;28;20383;-82
2022/10/24 06:20:13;;;;;;;4.55;3.40;;;;;;;;;;5035460;28;20421;-82
2022/10/24 06:22:39;;;;;;;4.07;3.67;;;;;;;;;;5035065;28;20470;-82
2022/10/24 06:25:06;;;;;;;6.30;3.50;;;;;;;;;;5035306;28;20382;-82
2022/10/24 06:27:32;;;;;;;5.50;3.97;;;;;;;;;;5035366;28;20395;-81
2022/10/24 06:29:58;;;;;;;5.97;3.80;;;;;;;;;;5035166;28;20409;-82
2022/10/24 06:32:24;;;;;;;5.32;3.63;;;;;;;;;;5035160;28;20379;-82
2022/10/24 06:34:53;;;;;;;7.20;3.85;;;;;;;;;;5033774;28;20474;-81
2022/10/24 06:37:19;;;;;;;8.55;4.57;;;;;;;;;;5027713;28;20383;-81
2022/10/24 06:39:45;;;;;;;12.88;5.25;;;;;;;;;;5034763;28;20382;-81
2022/10/24 06:42:11;;;;;;;11.32;4.45;;;;;;;;;;5034831;28;20433;-81
2022/10/24 06:44:37;;;;;;;11.13;4.40;;;;;;;;;;5027663;28;20411;-81
2022/10/24 06:47:06;;;;;;;8.95;3.53;;;;;;;;;;5028145;28;20435;-81
2022/10/24 06:49:40;;;;;;;7.17;2.93;;;;;;;;;;5034440;28;20387;-81
2022/10/24 06:52:06;;;;;;;7.60;3.77;;;;;;;;;;5028419;28;20985;-81
2022/10/24 06:54:35;;;;;;;8.43;3.28;;;;;;;;;;5028978;28;20462;-81
2022/10/24 06:57:01;;;;;;;6.75;3.70;;;;;;;;;;5034490;28;20379;-81
2022/10/24 06:59:27;;;;;;;5.65;3.22;;;;;;;;;;5034469;28;20469;-81
2022/10/24 07:01:53;;;;;;;6.03;3.00;;;;;;;;;;5034368;28;20445;-81
2022/10/24 07:04:19;;;;;;;4.78;3.17;;;;;;;;;;5030828;28;20380;-81
2022/10/24 07:06:45;;;;;;;4.82;3.00;;;;;;;;;;5034636;28;20382;-81
2022/10/24 07:09:12;;;;;;;6.22;3.10;;;;;;;;;;5034667;28;20448;-81
2022/10/24 07:11:38;;;;;;;5.30;3.15;;;;;;;;;;5034715;28;20453;-81
2022/10/24 07:14:05;;;;;;;5.15;3.05;;;;;;;;;;5034282;28;20386;-80
2022/10/24 07:16:31;;;;;;;7.30;3.38;;;;;;;;;;5033069;28;20383;-80
2022/10/24 07:18:57;;;;;;;7.30;3.70;;;;;;;;;;5034287;28;20473;-79
2022/10/24 07:21:25;;;;;;;10.23;4.40;;;;;;;;;;5034076;28;20433;-79
2022/10/24 07:23:51;;;;;;;8.05;3.80;;;;;;;;;;5034247;28;20386;-79
2022/10/24 07:26:18;;;;;;;17.17;4.63;;;;;;;;;;5034061;28;20470;-81
2022/10/24 07:28:45;;;;;;;34.72;7.28;;;;;;;;;;5034243;28;20394;-82
2022/10/24 07:31:13;;;;;;;18.95;4.78;;;;;;;;;;5034089;28;20403;-82
2022/10/24 07:33:39;;;;;;;15.30;5.30;;;;;;;;;;5034055;28;20384;-80
2022/10/24 07:36:06;;;;;;;5.50;3.28;;;;;;;;;;5033665;28;20740;-81
2022/10/24 07:38:32;;;;;;;9.02;4.05;;;;;;;;;;5033384;28;20384;-81
2022/10/24 07:40:58;;;;;;;6.35;3.10;;;;;;;;;;5033552;28;20437;-81
2022/10/24 07:43:24;;;;;;;5.03;2.70;;;;;;;;;;5033505;28;20405;-81
2022/10/24 07:45:50;;;;;;;7.28;2.83;;;;;;;;;;5033564;28;20379;-81
2022/10/24 07:48:16;;;;;;;6.63;2.97;;;;;;;;;;5032870;28;20533;-81
2022/10/24 07:50:43;;;;;;;4.55;2.80;;;;;;;;;;5032818;28;20415;-81
2022/10/24 07:53:10;;;;;;;6.25;2.67;;;;;;;;;;5030668;28;20425;-81
2022/10/24 07:55:40;;;;;;;7.18;2.85;;;;;;;;;;5028218;28;20398;-81
2022/10/24 07:58:06;;;;;;;6.40;2.53;;;;;;;;;;5032964;28;20394;-82
2022/10/24 08:00:33;;;;;;;8.35;3.20;;;;;;;;;;5032946;28;20386;-82
2022/10/24 08:02:59;;;;;;;3.67;2.55;;;;;;;;;;5031832;28;20403;-83
2022/10/24 08:05:25;;;;;;;5.57;2.80;;;;;;;;;;5033087;28;20395;-82
2022/10/24 08:07:53;;;;;;;4.57;2.22;;;;;;;;;;5033958;28;20741;-82
2022/10/24 08:10:29;;;;;;;6.68;3.30;;;;;;;;;;5032921;28;20449;-83
2022/10/24 08:12:55;;;;;;;7.10;3.23;;;;;;;;;;5033246;28;20415;-84
2022/10/24 08:15:24;;;;;;;5.20;3.40;;;;;;;;;;5032522;28;20371;-83
2022/10/24 08:17:53;;;;;;;7.28;3.70;;;;;;;;;;5033072;28;20379;-83
2022/10/24 08:20:20;;;;;;;6.25;4.32;;;;;;;;;;5033124;28;20883;-85
2022/10/24 08:22:51;;;;;;;8.95;4.10;;;;;;;;;;5032928;28;20379;-84
2022/10/24 08:25:21;;;;;;;8.05;3.50;;;;;;;;;;5029999;28;20502;-83
2022/10/24 08:27:50;;;;;;;5.03;2.97;;;;;;;;;;5032921;28;20406;-84
2022/10/24 08:30:28;;;;;;;4.45;2.70;;;;;;;;;;5032196;28;20465;-83
2022/10/24 08:32:54;;;;;;;5.57;2.60;;;;;;;;;;5030864;28;20481;-82
2022/10/24 08:35:31;;;;;;;6.72;3.13;;;;;;;;;;5031715;28;20426;-82
2022/10/24 08:38:12;;;;;;;4.93;2.80;;;;;;;;;;5031751;28;20413;-82
2022/10/24 08:40:38;;;;;;;6.47;2.80;;;;;;;;;;5031743;28;20375;-82
2022/10/24 08:43:07;;;;;;;7.47;3.10;;;;;;;;;;5031617;28;20477;-82
2022/10/24 08:45:45;;;;;;;5.43;2.30;;;;;;;;;;5031531;28;20383;-82
2022/10/24 08:48:18;;;;;;;5.45;2.50;;;;;;;;;;5031592;28;20737;-82
2022/10/24 08:50:48;;;;;;;5.93;2.47;;;;;;;;;;5031444;28;20914;-83
2022/10/24 08:53:31;;;;;;;3.67;2.40;;;;;;;;;;5030835;28;20496;-83
2022/10/24 08:55:59;;;;;;;6.25;2.80;;;;;;;;;;5031522;28;20379;-82
2022/10/24 08:58:25;;;;;;;5.18;2.42;;;;;;;;;;5031479;28;20912;-83
2022/10/24 09:00:52;;;;;;;5.68;2.47;;;;;;;;;;5031209;28;20521;-83
2022/10/24 09:03:25;;;;;;;5.38;3.08;;;;;;;;;;5029939;28;20486;-83
2022/10/24 09:05:59;;;;;;;6.65;3.60;;;;;;;;;;5029829;28;20418;-83
2022/10/24 09:08:49;;;;;;;8.10;4.28;;;;;;;;;;5031311;28;20788;-82
2022/10/24 09:11:36;;;;;;;6.63;3.50;;;;;;;;;;5019133;28;20411;-82
2022/10/24 09:14:11;;;;;;;6.00;3.20;;;;;;;;;;5032250;28;20379;-83
2022/10/24 09:16:41;;;;;;;6.85;3.28;;;;;;;;;;5031600;28;20405;-83
2022/10/24 09:19:15;;;;;;;4.35;2.63;;;;;;;;;;5032138;28;20807;-83
2022/10/24 09:21:41;;;;;;;5.53;3.00;;;;;;;;;;5032494;28;20379;-83
2022/10/24 09:24:28;;;;;;;6.10;3.05;;;;;;;;;;5032217;28;20391;-83
2022/10/24 09:29:50;;;;;;;5.90;3.20;;;;;;;;;;5024046;28;20983;-83
2022/10/24 09:32:33;;;;;;;6.32;2.67;;;;;;;;;;5031731;28;20433;-83
2022/10/24 09:35:00;;;;;;;5.80;2.83;;;;;;;;;;5019047;28;20450;-83
2022/10/24 09:37:33;;;;;;;6.03;3.03;;;;;;;;;;5032612;28;20390;-83
2022/10/24 09:40:12;;;;;;;4.90;2.65;;;;;;;;;;5036120;28;20418;-83
2022/10/24 09:42:41;;;;;;;5.95;2.78;;;;;;;;;;5030306;28;20396;-84
2022/10/24 09:45:39;;;;;;;5.13;2.70;;;;;;;;;;5034818;28;20387;-83
2022/10/24 09:48:21;;;;;;;5.30;2.63;;;;;;;;;;5020526;28;20391;-83
2022/10/24 09:50:51;;;;;;;5.55;2.53;;;;;;;;;;5028451;28;20911;-84
2022/10/24 09:53:40;;;;;;;6.13;2.83;;;;;;;;;;5036179;28;20394;-83
2022/10/24 09:56:14;;;;;;;4.68;2.47;;;;;;;;;;5036024;28;20379;-83
2022/10/24 09:58:43;;;;;;;5.78;2.40;;;;;;;;;;5035659;28;20857;-83
2022/10/24 10:01:21;;;;;;;5.97;2.90;;;;;;;;;;5035166;28;20491;-83
2022/10/24 10:04:08;;;;;;;6.72;3.45;;;;;;;;;;5029546;28;20889;-83
2022/10/24 10:06:34;;;;;;;7.70;4.20;;;;;;;;;;5016052;28;20885;-83
2022/10/24 10:09:02;;;;;;;8.43;5.38;;;;;;;;;;5032038;28;20387;-83
2022/10/24 10:11:36;;;;;;;6.97;3.05;;;;;;;;;;5035546;28;20513;-83
2022/10/24 10:14:02;;;;;;;6.30;3.10;;;;;;;;;;5035698;28;20405;-84
2022/10/24 10:16:38;;;;;;;8.52;3.50;;;;;;;;;;5035647;28;20378;-84
2022/10/24 10:19:18;;;;;;;6.00;3.70;;;;;;;;;;5035575;28;20387;-83
2022/10/24 10:21:55;;;;;;;4.50;3.72;;;;;;;;;;5035574;28;20890;-82
2022/10/24 10:24:28;;;;;;;7.07;4.00;;;;;;;;;;5032948;28;20399;-82
2022/10/24 10:26:54;;;;;;;5.72;3.50;;;;;;;;;;5018589;28;20391;-83
2022/10/24 10:29:25;;;;;;;6.20;3.63;;;;;;;;;;5022259;28;20404;-83
2022/10/24 10:31:59;;;;;;;6.97;3.35;;;;;;;;;;5016517;28;20393;-82
2022/10/24 10:34:28;;;;;;;6.17;3.80;;;;;;;;;;5024974;28;20743;-82
2022/10/24 10:37:06;;;;;;;7.85;4.28;;;;;;;;;;5023678;28;20390;-82
2022/10/24 10:39:44;;;;;;;6.55;3.65;;;;;;;;;;5021035;28;20870;-82
2022/10/24 10:42:25;;;;;;;7.47;5.63;;;;;;;;;;5035204;28;20470;-83
2022/10/24 10:45:03;;;;;;;4.80;3.30;;;;;;;;;;5034859;28;20434;-83
2022/10/24 10:47:38;;;;;;;4.67;2.87;;;;;;;;;;5034371;28;20383;-83
2022/10/24 10:50:33;;;;;;;5.97;3.58;;;;;;;;;;5034408;28;20413;-83
2022/10/24 10:53:22;;;;;;;3.40;2.60;;;;;;;;;;5035482;28;20379;-83
2022/10/24 10:56:04;;;;;;;5.03;3.00;;;;;;;;;;5029182;28;20534;-83
2022/10/24 10:58:56;;;;;;;4.38;2.22;;;;;;;;;;5035035;28;20470;-85
2022/10/24 11:01:54;;;;;;;5.70;1.92;;;;;;;;;;5032950;28;20517;-84
2022/10/24 11:04:23;;;;;;;4.20;2.10;;;;;;;;;;5034032;28;20399;-84
2022/10/24 11:07:04;;;;;;;4.53;2.20;;;;;;;;;;5034630;28;20406;-83
2022/10/24 11:09:53;;;;;;;6.57;4.18;;;;;;;;;;5034584;28;20470;-84
2022/10/24 11:12:30;;;;;;;5.07;2.63;;;;;;;;;;5033636;28;20734;-83
2022/10/24 11:15:00;;;;;;;5.00;1.90;;;;;;;;;;5034615;28;20860;-86
2022/10/24 11:17:32;;;;;;;3.30;1.80;;;;;;;;;;5021172;28;20917;-83
2022/10/24 11:19:58;;;;;;;2.85;1.70;;;;;;;;;;5034856;28;20379;-83
2022/10/24 11:22:30;;;;;;;3.20;2.10;;;;;;;;;;5034585;28;20376;-82
2022/10/24 11:25:20;;;;;;;4.65;3.30;;;;;;;;;;5034418;28;20422;-82
2022/10/24 11:28:00;;;;;;;5.10;2.63;;;;;;;;;;5027492;28;20395;-83
2022/10/24 11:30:43;;;;;;;4.23;2.60;;;;;;;;;;5033900;28;20395;-82
2022/10/24 11:33:18;;;;;;;7.32;4.05;;;;;;;;;;5033998;28;20852;-82
2022/10/24 11:36:13;;;;;;;7.95;3.95;;;;;;;;;;5034034;28;20375;-82
2022/10/24 11:38:44;;;;;;;6.32;3.80;;;;;;;;;;5033169;28;20411;-82
2022/10/24 11:41:17;;;;;;;7.73;4.20;;;;;;;;;;5033742;28;20477;-83
2022/10/24 11:44:02;;;;;;;8.60;5.50;;;;;;;;;;5034049;28;20395;-82
2022/10/24 11:46:41;;;;;;;7.68;3.42;;;;;;;;;;5033605;28;20379;-83
2022/10/24 11:49:20;;;;;;;5.22;2.50;;;;;;;;;;5032557;28;20869;-83
2022/10/24 11:52:00;;;;;;;3.80;2.13;;;;;;;;;;5033019;28;20395;-83
2022/10/24 11:54:46;;;;;;;3.35;1.73;;;;;;;;;;5032952;28;20475;-83
2022/10/24 11:57:15;;;;;;;4.50;1.70;;;;;;;;;;5033624;28;20379;-83
2022/10/24 11:59:46;;;;;;;5.18;1.80;;;;;;;;;;5032107;28;20387;-83
2022/10/24 12:02:44;;;;;;;4.17;1.30;;;;;;;;;;5030759;28;20975;-84
2022/10/24 12:05:36;;;;;;;4.03;1.70;;;;;;;;;;5027211;28;20383;-86
2022/10/24 12:08:05;;;;;;;3.15;1.00;;;;;;;;;;5033767;28;20407;-84
2022/10/24 12:10:31;;;;;;;3.88;1.58;;;;;;;;;;5033259;28;20411;-86
2022/10/24 12:13:08;;;;;;;2.05;1.20;;;;;;;;;;5033169;28;20470;-86
2022/10/24 12:15:37;;;;;;;2.47;1.38;;;;;;;;;;5033487;28;20371;-86
2022/10/24 12:18:03;;;;;;;3.55;1.60;;;;;;;;;;5033394;28;20375;-86
2022/10/24 12:20:32;;;;;;;4.72;1.63;;;;;;;;;;5033066;28;20747;-86
2022/10/24 12:22:59;;;;;;;3.70;1.30;;;;;;;;;;5033300;28;20422;-86
2022/10/24 12:25:28;;;;;;;4.03;1.58;;;;;;;;;;5031824;28;20786;-85
2022/10/24 12:27:56;;;;;;;3.05;1.55;;;;;;;;;;5032683;28;20391;-85
2022/10/24 12:30:26;;;;;;;2.33;1.58;;;;;;;;;;5033061;28;20403;-86
2022/10/24 12:33:00;;;;;;;2.35;1.23;;;;;;;;;;5033011;28;21139;-86
2022/10/24 12:35:26;;;;;;;3.13;1.38;;;;;;;;;;5033060;28;20383;-85
2022/10/24 12:37:52;;;;;;;1.67;1.25;;;;;;;;;;5032104;28;20390;-85
2022/10/24 12:40:36;;;;;;;2.63;1.60;;;;;;;;;;5032840;28;20415;-85
2022/10/24 12:43:07;;;;;;;4.20;1.93;;;;;;;;;;5032766;28;20407;-85
2022/10/24 12:45:33;;;;;;;2.83;2.10;;;;;;;;;;5031449;28;20395;-86
2022/10/24 12:47:59;;;;;;;2.58;1.70;;;;;;;;;;5032705;28;20959;-86
2022/10/24 12:50:27;;;;;;;2.63;1.50;;;;;;;;;;5032564;28;20406;-85
2022/10/24 12:52:53;;;;;;;2.72;1.40;;;;;;;;;;5032833;28;20713;-86
2022/10/24 12:55:51;;;;;;;3.25;1.58;;;;;;;;;;5032361;28;20465;-85
2022/10/24 12:58:21;;;;;;;2.38;1.70;;;;;;;;;;5032677;28;20379;-86
2022/10/24 13:01:17;;;;;;;3.20;1.38;;;;;;;;;;5031404;28;20410;-86
2022/10/24 13:04:09;;;;;;;2.20;1.50;;;;;;;;;;5023621;28;20407;-86
2022/10/24 13:07:02;;;;;;;2.38;1.30;;;;;;;;;;5032759;28;20385;-86
2022/10/24 13:09:28;;;;;;;3.70;1.38;;;;;;;;;;5032887;28;20415;-86
2022/10/24 13:12:16;;;;;;;3.67;1.38;;;;;;;;;;5032132;28;20829;-86
2022/10/24 13:14:43;;;;;;;2.97;1.20;;;;;;;;;;5032549;28;20398;-86
2022/10/24 13:17:14;;;;;;;4.10;1.07;;;;;;;;;;5031428;28;20951;-86
2022/10/24 13:20:05;;;;;;;1.90;1.30;;;;;;;;;;5039455;28;20394;-86
2022/10/24 13:22:35;;;;;;;3.25;1.83;;;;;;;;;;5031267;28;20430;-85
2022/10/24 13:25:17;;;;;;;3.20;1.63;;;;;;;;;;5032774;28;20469;-86
2022/10/24 13:27:43;;;;;;;3.05;1.70;;;;;;;;;;5032089;28;20376;-86
2022/10/24 13:30:23;;;;;;;2.33;1.30;;;;;;;;;;5032296;28;20411;-85
2022/10/24 13:32:49;;;;;;;2.53;1.52;;;;;;;;;;5032347;28;20391;-86
2022/10/24 13:35:18;;;;;;;1.90;1.10;;;;;;;;;;5030927;28;20800;-86
2022/10/24 13:37:45;;;;;;;3.60;1.50;;;;;;;;;;5032462;28;20393;-86
2022/10/24 13:40:17;;;;;;;2.55;1.30;;;;;;;;;;5032427;28;20383;-86
2022/10/24 13:43:03;;;;;;;2.10;1.40;;;;;;;;;;5031720;28;20394;-86
2022/10/24 13:45:59;;;;;;;2.10;1.20;;;;;;;;;;5020998;28;20395;-86
2022/10/24 13:48:56;;;;;;;1.90;1.20;;;;;;;;;;5030909;28;20390;-86
2022/10/24 13:51:57;;;;;;;3.83;1.30;;;;;;;;;;5027263;28;20494;-86
2022/10/24 13:54:26;;;;;;;1.15;1.05;;;;;;;;;;5009779;28;20482;-86
2022/10/24 13:56:52;;;;;;;3.08;1.20;;;;;;;;;;5031938;28;20387;-86
2022/10/24 13:59:36;;;;;;;4.50;1.80;;;;;;;;;;5030774;28;20405;-86
2022/10/24 14:02:11;;;;;;;3.50;1.38;;;;;;;;;;5030497;28;20386;-86
2022/10/24 14:04:45;;;;;;;5.07;2.20;;;;;;;;;;5032181;28;20375;-86
2022/10/24 14:07:18;;;;;;;2.35;1.70;;;;;;;;;;5031297;28;20368;-86
2022/10/24 14:09:49;;;;;;;4.53;2.40;;;;;;;;;;5031812;28;20382;-87
2022/10/24 14:12:26;;;;;;;4.07;2.00;;;;;;;;;;5031944;28;20382;-86
2022/10/24 14:14:52;;;;;;;4.57;2.40;;;;;;;;;;5031822;28;20371;-86
2022/10/24 14:17:27;;;;;;;5.22;2.88;;;;;;;;;;5031605;28;20372;-86
2022/10/24 14:20:01;;;;;;;5.43;3.50;;;;;;;;;;5031742;28;20441;-87
2022/10/24 14:22:32;;;;;;;3.70;2.92;;;;;;;;;;5031151;28;20378;-86
2022/10/24 14:25:00;;;;;;;3.50;2.30;;;;;;;;;;5032354;28;20383;-86
2022/10/24 14:27:27;;;;;;;4.45;2.67;;;;;;;;;;5035275;28;20379;-86
2022/10/24 14:29:58;;;;;;;6.03;2.42;;;;;;;;;;5035453;28;20403;-86
2022/10/24 14:32:30;;;;;;;4.13;2.00;;;;;;;;;;5035260;28;20433;-86
2022/10/24 14:35:17;;;;;;;2.75;2.08;;;;;;;;;;5034391;28;20504;-86
2022/10/24 14:37:50;;;;;;;4.57;2.20;;;;;;;;;;5035087;28;20379;-85
2022/10/24 14:40:17;;;;;;;3.00;1.83;;;;;;;;;;5033761;28;20452;-86
2022/10/24 14:42:46;;;;;;;3.25;1.67;;;;;;;;;;5035057;28;20387;-86
2022/10/24 14:45:49;;;;;;;3.00;1.80;;;;;;;;;;5035141;28;20399;-86
2022/10/24 14:48:26;;;;;;;4.43;1.73;;;;;;;;;;4993584;28;20390;-86
2022/10/24 14:50:55;;;;;;;2.80;1.48;;;;;;;;;;5003471;28;20415;-85
2022/10/24 14:53:25;;;;;;;2.63;1.58;;;;;;;;;;5034857;28;20380;-86
2022/10/24 14:55:56;;;;;;;3.13;1.80;;;;;;;;;;5034615;28;20402;-86
2022/10/24 14:58:23;;;;;;;4.25;2.55;;;;;;;;;;5032120;28;20445;-86
2022/10/24 15:00:55;;;;;;;4.28;1.90;;;;;;;;;;5033647;28;20776;-86
2022/10/24 15:03:22;;;;;;;2.70;1.98;;;;;;;;;;5034699;28;20375;-86
2022/10/24 15:05:58;;;;;;;3.15;1.67;;;;;;;;;;5031497;28;20399;-85
2022/10/24 15:08:27;;;;;;;4.10;2.00;;;;;;;;;;5036831;28;20381;-85
2022/10/24 15:11:04;;;;;;;2.55;1.38;;;;;;;;;;5034654;28;20410;-85
2022/10/24 15:13:45;;;;;;;3.80;1.40;;;;;;;;;;5026138;28;20387;-85
2022/10/24 15:16:34;;;;;;;4.93;1.80;;;;;;;;;;5034992;28;20375;-85
2022/10/24 15:19:02;;;;;;;3.92;1.90;;;;;;;;;;5034460;28;20442;-85
2022/10/24 15:21:31;;;;;;;4.60;1.63;;;;;;;;;;5033953;28;20387;-86
2022/10/24 15:24:01;;;;;;;2.55;1.60;;;;;;;;;;5033885;28;20383;-85
2022/10/24 15:26:38;;;;;;;3.75;1.70;;;;;;;;;;5033833;28;20386;-85
2022/10/24 15:29:13;;;;;;;2.45;1.55;;;;;;;;;;5034148;28;20407;-84
2022/10/24 15:31:46;;;;;;;3.07;1.90;;;;;;;;;;5032091;28;20422;-86
2022/10/24 15:34:14;;;;;;;3.90;1.55;;;;;;;;;;5033807;28;20513;-86
2022/10/24 15:36:44;;;;;;;3.38;1.25;;;;;;;;;;5034126;28;20406;-86
2022/10/24 15:39:11;;;;;;;2.23;1.20;;;;;;;;;;5034280;28;20375;-85
2022/10/24 15:41:42;;;;;;;2.13;1.20;;;;;;;;;;5033861;28;20473;-85
2022/10/24 15:44:28;;;;;;;3.33;1.25;;;;;;;;;;5034243;28;20388;-85
2022/10/24 15:46:54;;;;;;;3.45;1.30;;;;;;;;;;5034064;28;20900;-85
2022/10/24 15:49:21;;;;;;;4.32;1.80;;;;;;;;;;5033513;28;20383;-85
2022/10/24 15:51:51;;;;;;;4.72;1.70;;;;;;;;;;5034091;28;20436;-85
2022/10/24 15:54:21;;;;;;;2.50;1.50;;;;;;;;;;5033144;28;20876;-85
2022/10/24 15:56:47;;;;;;;4.07;2.00;;;;;;;;;;5033724;28;20397;-86
2022/10/24 15:59:13;;;;;;;3.25;1.50;;;;;;;;;;5033170;28;20386;-85
2022/10/24 16:01:46;;;;;;;2.75;1.15;;;;;;;;;;5033583;28;20409;-86
2022/10/24 16:04:17;;;;;;;2.90;1.10;;;;;;;;;;5033593;28;20387;-86
2022/10/24 16:06:46;;;;;;;2.38;1.05;;;;;;;;;;5033471;28;20383;-86
2022/10/24 16:09:14;;;;;;;2.10;1.23;;;;;;;;;;5033579;28;20379;-86
2022/10/24 16:11:55;;;;;;;4.07;1.30;;;;;;;;;;5033459;28;20398;-86
2022/10/24 16:14:29;;;;;;;3.38;1.10;;;;;;;;;;5033733;28;20387;-85
2022/10/24 16:16:56;;;;;;;3.42;1.15;;;;;;;;;;5033153;28;20375;-85
2022/10/24 16:19:28;;;;;;;3.38;1.40;;;;;;;;;;5030618;28;20891;-85
2022/10/24 16:22:09;;;;;;;3.03;1.30;;;;;;;;;;5033098;28;20486;-86
2022/10/24 16:24:35;;;;;;;3.58;1.35;;;;;;;;;;5032444;28;20391;-86
2022/10/24 16:27:01;;;;;;;3.45;1.50;;;;;;;;;;5028938;28;20401;-86
2022/10/24 16:29:29;;;;;;;2.60;1.30;;;;;;;;;;5012165;28;20434;-86
2022/10/24 16:31:55;;;;;;;1.43;1.03;;;;;;;;;;5003043;28;20475;-85
2022/10/24 16:34:22;;;;;;;4.05;1.27;;;;;;;;;;5021507;28;20387;-86
2022/10/24 16:36:51;;;;;;;2.03;1.63;;;;;;;;;;5013261;28;20471;-85
2022/10/24 16:39:17;;;;;;;2.00;1.48;;;;;;;;;;5013305;28;20393;-87
2022/10/24 16:41:44;;;;;;;1.50;1.35;;;;;;;;;;5012243;28;20886;-84
2022/10/24 16:44:11;;;;;;;3.25;1.70;;;;;;;;;;5013200;28;20455;-85
2022/10/24 16:46:37;;;;;;;2.70;1.30;;;;;;;;;;5012300;28;20488;-85
2022/10/24 16:49:03;;;;;;;2.22;1.50;;;;;;;;;;5012990;28;20404;-85
2022/10/24 16:51:30;;;;;;;2.65;1.27;;;;;;;;;;5013062;28;20399;-85
2022/10/24 16:53:57;;;;;;;1.90;1.33;;;;;;;;;;5009241;28;20403;-84
2022/10/24 16:56:23;;;;;;;2.58;1.25;;;;;;;;;;5013407;28;20381;-84
2022/10/24 16:58:49;;;;;;;2.63;1.60;;;;;;;;;;5008283;28;20477;-84
2022/10/24 17:01:15;;;;;;;2.10;1.30;;;;;;;;;;5001172;28;20941;-85
2022/10/24 17:03:43;;;;;;;1.33;1.00;;;;;;;;;;4999894;28;20743;-82
2022/10/24 17:06:09;;;;;;;1.63;1.20;;;;;;;;;;5006631;28;20396;-82
2022/10/24 17:08:36;;;;;;;1.73;1.55;;;;;;;;;;5005692;28;20408;-82
2022/10/24 17:11:02;;;;;;;4.32;1.70;;;;;;;;;;5012532;28;20385;-81
2022/10/24 17:13:28;;;;;;;3.10;1.50;;;;;;;;;;5012713;28;20380;-84
2022/10/24 17:15:55;;;;;;;3.70;3.40;;;;;;;;;;5006074;28;20386;-83
2022/10/24 17:18:27;;;;;;;7.63;7.03;;;;;;;;;;4993563;28;20441;-83
2022/10/24 17:20:58;;;;;;;5.28;4.80;;;;;;;;;;5003180;28;20404;-85
2022/10/24 17:23:25;;;;;;;3.97;3.50;;;;;;;;;;4995214;28;20462;-83
2022/10/24 17:25:51;;;;;;;5.00;4.30;;;;;;;;;;4999176;28;20866;-84
2022/10/24 17:28:17;;;;;;;6.35;5.75;;;;;;;;;;5012242;28;20381;-83
2022/10/24 17:30:43;;;;;;;5.28;4.53;;;;;;;;;;5012631;28;20399;-84
2022/10/24 17:33:13;;;;;;;4.10;3.80;;;;;;;;;;5010781;28;20389;-84
2022/10/24 17:35:44;;;;;;;5.88;4.10;;;;;;;;;;5007991;28;20402;-83
2022/10/24 17:38:12;;;;;;;5.53;4.97;;;;;;;;;;5009911;28;20454;-84
2022/10/24 17:40:48;;;;;;;7.82;7.03;;;;;;;;;;5003217;28;20408;-84
2022/10/24 17:43:17;;;;;;;10.77;9.85;;;;;;;;;;4998010;28;20862;-83
2022/10/24 17:45:43;;;;;;;10.40;9.48;;;;;;;;;;5012253;28;20817;-84
2022/10/24 17:48:12;;;;;;;9.98;9.07;;;;;;;;;;5011805;28;20373;-84
2022/10/24 17:50:41;;;;;;;5.88;5.28;;;;;;;;;;5012223;28;20866;-85
2022/10/24 17:53:07;;;;;;;4.65;3.47;;;;;;;;;;4997844;28;20389;-85
2022/10/24 17:55:34;;;;;;;6.60;5.55;;;;;;;;;;5002474;28;20409;-85
2022/10/24 17:57:59;;;;;;;4.30;3.45;;;;;;;;;;4990931;28;20378;-85
2022/10/24 18:00:25;;;;;;;3.90;3.50;;;;;;;;;;4995595;28;20841;-85
2022/10/24 18:02:52;;;;;;;4.53;2.47;;;;;;;;;;5024878;28;20590;-85
2022/10/24 18:05:20;;;;;;;3.08;2.70;;;;;;;;;;5004054;28;20404;-85
2022/10/24 18:07:46;;;;;;;6.45;2.60;;;;;;;;;;5022753;28;20411;-85
2022/10/24 18:10:13;;;;;;;3.78;2.20;;;;;;;;;;5015053;28;20414;-86
2022/10/24 18:12:40;;;;;;;2.60;2.40;;;;;;;;;;5016082;28;20381;-86
2022/10/24 18:15:09;;;;;;;4.35;3.10;;;;;;;;;;5015351;28;20435;-86
2022/10/24 18:17:36;;;;;;;3.47;2.50;;;;;;;;;;5015104;28;20408;-86
2022/10/24 18:20:02;;;;;;;4.07;2.38;;;;;;;;;;5015454;28;20388;-86
2022/10/24 18:22:36;;;;;;;4.28;2.30;;;;;;;;;;5015745;28;20385;-85
2022/10/24 18:25:04;;;;;;;3.00;2.00;;;;;;;;;;5015980;28;20384;-86
2022/10/24 18:27:30;;;;;;;3.95;2.20;;;;;;;;;;5015478;28;20381;-85
2022/10/24 18:29:56;;;;;;;2.33;2.00;;;;;;;;;;5013645;28;20542;-85
2022/10/24 18:32:22;;;;;;;4.60;2.37;;;;;;;;;;5012083;28;20894;-85
2022/10/24 18:34:48;;;;;;;2.80;2.20;;;;;;;;;;5015012;28;20472;-85
2022/10/24 18:37:14;;;;;;;2.72;2.08;;;;;;;;;;5012908;28;20419;-85
2022/10/24 18:39:41;;;;;;;4.10;2.20;;;;;;;;;;5007036;28;20789;-84
2022/10/24 18:42:20;;;;;;;3.45;1.90;;;;;;;;;;5010057;28;21882;-85
2022/10/24 18:44:46;;;;;;;1.80;1.70;;;;;;;;;;5013811;28;20392;-86
2022/10/24 18:47:15;;;;;;;4.87;2.23;;;;;;;;;;5014876;28;20842;-84
2022/10/24 18:49:41;;;;;;;3.28;2.17;;;;;;;;;;5007251;28;20414;-85
2022/10/24 18:52:10;;;;;;;2.85;2.30;;;;;;;;;;5003946;28;20405;-84
2022/10/24 18:54:37;;;;;;;4.72;2.97;;;;;;;;;;5014723;28;20396;-85
2022/10/24 18:57:20;;;;;;;2.38;2.08;;;;;;;;;;5012795;28;20524;-84
2022/10/24 18:59:46;;;;;;;2.25;1.70;;;;;;;;;;5007694;28;20397;-84
2022/10/24 19:02:23;;;;;;;3.00;2.05;;;;;;;;;;5010890;28;21113;-84
2022/10/24 19:04:52;;;;;;;5.65;3.20;;;;;;;;;;5015049;28;20385;-85
2022/10/24 19:07:18;;;;;;;3.58;2.70;;;;;;;;;;5014655;28;20373;-86
2022/10/24 19:09:44;;;;;;;2.90;2.60;;;;;;;;;;5004002;28;20457;-85